createdAt,value
2022-10-11T00:01:17.882Z,3.30
2022-10-11T00:03:44.859Z,4.13
2022-10-11T00:06:11.791Z,3.85
2022-10-11T00:08:38.692Z,3.47
2022-10-11T00:11:10.315Z,3.03
2022-10-11T00:13:39.583Z,3.17
2022-10-11T00:16:11.755Z,3.40
2022-10-11T00:18:39.305Z,3.03
2022-10-11T00:21:10.289Z,3.60
2022-10-11T00:23:40.070Z,3.85
2022-10-11T00:26:09.798Z,4.05
2022-10-11T00:28:37.960Z,3.72
2022-10-11T00:31:11.295Z,3.45
2022-10-11T00:33:40.794Z,3.30
2022-10-11T00:36:09.692Z,3.55
2022-10-11T00:38:41.621Z,3.35
2022-10-11T00:41:11.336Z,3.60
2022-10-11T00:43:41.389Z,3.20
2022-10-11T00:46:27.959Z,3.33
2022-10-11T00:49:05.179Z,3.30
2022-10-11T00:51:42.867Z,3.50
2022-10-11T00:54:14.226Z,3.50
2022-10-11T00:56:44.359Z,3.35
2022-10-11T00:59:17.840Z,3.45
2022-10-11T01:01:45.016Z,3.97
2022-10-11T01:04:12.022Z,3.80
2022-10-11T01:06:39.935Z,3.35
2022-10-11T01:09:07.405Z,3.65
2022-10-11T01:11:38.343Z,3.83
2022-10-11T01:14:52.418Z,4.15
2022-10-11T01:17:41.408Z,3.13
2022-10-11T01:20:54.812Z,3.97
2022-10-11T01:23:50.125Z,3.22
2022-10-11T01:27:18.717Z,3.25
2022-10-11T01:29:54.877Z,3.60
2022-10-11T01:32:34.350Z,3.45
2022-10-11T01:35:19.275Z,3.70
2022-10-11T01:38:03.601Z,4.00
2022-10-11T01:40:47.154Z,4.25
2022-10-11T01:43:17.235Z,4.15
2022-10-11T01:45:45.956Z,3.80
2022-10-11T01:48:13.917Z,3.53
2022-10-11T01:50:48.183Z,3.75
2022-10-11T01:53:55.026Z,3.80
2022-10-11T01:57:14.700Z,3.65
2022-10-11T01:59:44.633Z,3.92
2022-10-11T02:02:48.029Z,3.75
2022-10-11T02:05:20.014Z,3.95
2022-10-11T02:08:09.569Z,3.97
2022-10-11T02:10:59.331Z,4.00
2022-10-11T02:13:39.392Z,3.55
2022-10-11T02:16:12.791Z,3.38
2022-10-11T02:18:48.014Z,3.47
2022-10-11T02:21:19.934Z,3.85
2022-10-11T02:24:06.168Z,4.00
2022-10-11T02:26:34.767Z,3.53
2022-10-11T02:29:09.777Z,3.90
2022-10-11T02:31:39.697Z,3.90
2022-10-11T02:34:22.330Z,4.20
2022-10-11T02:37:12.293Z,3.67
2022-10-11T02:39:57.381Z,3.58
2022-10-11T02:42:32.776Z,3.33
2022-10-11T02:45:10.205Z,2.90
2022-10-11T02:47:40.265Z,4.15
2022-10-11T02:50:12.134Z,4.03
2022-10-11T02:52:39.030Z,4.18
2022-10-11T02:55:07.017Z,3.92
2022-10-11T02:57:33.997Z,4.07
2022-10-11T03:00:00.997Z,4.20
2022-10-11T03:02:27.882Z,3.70
2022-10-11T03:04:54.776Z,3.78
2022-10-11T03:07:23.906Z,3.65
2022-10-11T03:09:50.860Z,4.10
2022-10-11T03:12:17.751Z,4.32
2022-10-11T03:14:48.674Z,4.32
2022-10-11T03:17:35.099Z,3.88
2022-10-11T03:20:02.676Z,3.90
2022-10-11T03:22:29.578Z,3.78
2022-10-11T03:24:59.766Z,4.20
2022-10-11T03:27:30.506Z,3.92
2022-10-11T03:29:57.785Z,3.95
2022-10-11T03:32:24.807Z,3.63
2022-10-11T03:34:51.659Z,4.20
2022-10-11T03:37:23.586Z,4.25
2022-10-11T03:39:52.933Z,3.65
2022-10-11T03:42:22.135Z,3.97
2022-10-11T03:44:52.051Z,3.72
2022-10-11T03:47:19.309Z,3.83
2022-10-11T03:49:47.536Z,3.90
2022-10-11T03:52:16.966Z,3.42
2022-10-11T03:54:46.811Z,3.53
2022-10-11T03:57:16.169Z,4.95
2022-10-11T03:59:45.534Z,3.60
2022-10-11T04:02:12.481Z,5.00
2022-10-11T04:04:42.416Z,3.95
2022-10-11T04:07:09.722Z,4.15
2022-10-11T04:09:37.885Z,3.92
2022-10-11T04:12:10.346Z,3.70
2022-10-11T04:14:40.524Z,3.55
2022-10-11T04:17:12.421Z,3.60
2022-10-11T04:19:39.300Z,3.55
2022-10-11T04:22:07.766Z,4.50
2022-10-11T04:24:34.804Z,4.45
2022-10-11T04:27:04.224Z,4.45
2022-10-11T04:29:32.712Z,4.28
2022-10-11T04:32:00.083Z,4.40
2022-10-11T04:34:27.030Z,4.13
2022-10-11T04:36:56.120Z,4.10
2022-10-11T04:39:25.558Z,3.50
2022-10-11T04:41:55.878Z,3.40
2022-10-11T04:44:22.851Z,3.55
2022-10-11T04:47:07.718Z,3.83
2022-10-11T04:49:48.770Z,3.70
2022-10-11T04:52:16.040Z,3.45
2022-10-11T04:54:46.635Z,3.58
2022-10-11T04:57:13.674Z,3.53
2022-10-11T04:59:40.963Z,3.60
2022-10-11T05:02:08.110Z,3.25
2022-10-11T05:04:37.817Z,3.60
2022-10-11T05:07:06.535Z,3.35
2022-10-11T05:09:33.695Z,3.03
2022-10-11T05:12:03.648Z,2.90
2022-10-11T05:14:33.167Z,2.88
2022-10-11T05:17:00.285Z,3.63
2022-10-11T05:19:27.433Z,3.63
2022-10-11T05:21:57.852Z,2.90
2022-10-11T05:24:29.514Z,3.13
2022-10-11T05:27:03.184Z,3.00
2022-10-11T05:29:35.683Z,3.10
2022-10-11T05:32:48.920Z,2.60
2022-10-11T05:35:16.072Z,2.70
2022-10-11T05:38:01.546Z,2.55
2022-10-11T05:46:39.620Z,2.53
2022-10-11T05:49:09.175Z,2.63
2022-10-11T05:51:37.526Z,2.70
2022-10-11T05:54:09.346Z,2.72
2022-10-11T05:56:36.281Z,2.45
2022-10-11T05:59:05.030Z,3.00
2022-10-11T06:01:32.252Z,3.20
2022-10-11T06:04:01.937Z,2.70
2022-10-11T06:06:28.928Z,3.97
2022-10-11T06:08:58.400Z,3.13
2022-10-11T06:11:27.653Z,3.08
2022-10-11T06:13:58.754Z,3.28
2022-10-11T06:16:25.944Z,3.00
2022-10-11T06:18:54.703Z,3.30
2022-10-11T06:21:22.929Z,3.50
2022-10-11T06:23:51.338Z,3.33
2022-10-11T06:26:19.491Z,3.50
2022-10-11T06:28:46.814Z,3.55
2022-10-11T06:31:14.441Z,3.22
2022-10-11T06:33:41.458Z,3.30
2022-10-11T06:36:16.943Z,3.38
2022-10-11T06:38:46.609Z,3.03
2022-10-11T06:41:26.933Z,3.00
2022-10-11T06:43:54.448Z,3.47
2022-10-11T06:46:27.422Z,3.42
2022-10-11T06:48:59.021Z,3.03
2022-10-11T06:53:59.694Z,2.88
2022-10-11T06:56:30.406Z,2.40
2022-10-11T06:59:03.679Z,2.90
2022-10-11T07:01:30.858Z,3.28
2022-10-11T07:04:01.391Z,3.08
2022-10-11T07:06:30.571Z,3.05
2022-10-11T07:09:00.795Z,2.83
2022-10-11T07:11:28.765Z,3.10
2022-10-11T07:14:07.826Z,3.40
2022-10-11T07:16:38.296Z,3.03
2022-10-11T07:19:07.799Z,3.05
2022-10-11T07:21:37.408Z,3.03
2022-10-11T07:24:04.809Z,3.42
2022-10-11T07:26:38.785Z,3.17
2022-10-11T07:29:11.843Z,2.83
2022-10-11T07:31:42.445Z,2.58
2022-10-11T07:34:10.551Z,3.10
2022-10-11T07:36:40.250Z,3.00
2022-10-11T07:39:08.886Z,3.42
2022-10-11T07:41:44.653Z,3.38
2022-10-11T07:44:13.270Z,3.17
2022-10-11T07:46:40.323Z,4.00
2022-10-11T07:49:07.325Z,3.65
2022-10-11T07:51:34.593Z,3.35
2022-10-11T07:54:07.004Z,3.38
2022-10-11T07:56:37.593Z,3.15
2022-10-11T07:59:05.207Z,3.00
2022-10-11T08:01:33.651Z,3.25
2022-10-11T08:04:00.930Z,2.88
2022-10-11T08:06:32.633Z,3.13
2022-10-11T08:09:01.527Z,2.92
2022-10-11T08:11:38.443Z,3.45
2022-10-11T08:14:09.191Z,3.28
2022-10-11T08:16:40.881Z,3.40
2022-10-11T08:19:07.970Z,3.58
2022-10-11T08:21:35.060Z,4.22
2022-10-11T08:24:05.739Z,4.20
2022-10-11T08:26:34.118Z,4.30
2022-10-11T08:29:03.585Z,3.80
2022-10-11T08:31:32.879Z,4.45
2022-10-11T08:33:59.902Z,4.15
2022-10-11T08:36:27.011Z,4.15
2022-10-11T08:38:53.972Z,3.97
2022-10-11T08:41:43.275Z,3.72
2022-10-11T08:45:09.580Z,3.22
2022-10-11T08:47:43.216Z,2.95
2022-10-11T08:50:20.895Z,3.10
2022-10-11T08:53:05.108Z,2.38
2022-10-11T08:55:45.201Z,2.80
2022-10-11T08:58:17.668Z,2.90
2022-10-11T09:00:55.410Z,3.10
2022-10-11T09:03:40.426Z,3.40
2022-10-11T09:06:23.821Z,3.45
2022-10-11T09:09:01.722Z,3.33
2022-10-11T09:12:16.850Z,3.88
2022-10-11T09:15:20.866Z,3.67
2022-10-11T09:17:59.926Z,3.50
2022-10-11T09:20:40.449Z,4.00
2022-10-11T09:23:34.658Z,4.10
2022-10-11T09:26:23.082Z,3.78
2022-10-11T09:29:01.320Z,3.80
2022-10-11T09:31:29.892Z,4.00
2022-10-11T09:34:06.265Z,4.20
2022-10-11T09:37:18.327Z,3.95
2022-10-11T09:40:01.439Z,3.65
2022-10-11T09:42:28.532Z,3.95
2022-10-11T09:44:57.463Z,3.42
2022-10-11T09:47:33.248Z,3.33
2022-10-11T09:50:12.656Z,3.42
2022-10-11T09:53:02.196Z,3.17
2022-10-11T09:55:50.362Z,3.50
2022-10-11T09:58:31.910Z,3.10
2022-10-11T10:03:42.057Z,2.80
2022-10-11T10:06:28.860Z,3.05
2022-10-11T10:09:26.735Z,2.70
2022-10-11T10:11:55.521Z,2.95
2022-10-11T10:14:30.677Z,3.28
2022-10-11T10:17:06.497Z,3.08
2022-10-11T10:19:48.458Z,3.25
2022-10-11T10:22:22.738Z,3.83
2022-10-11T10:24:53.818Z,2.90
2022-10-11T10:27:28.302Z,2.38
2022-10-11T10:30:13.203Z,2.38
2022-10-11T10:33:04.831Z,2.95
2022-10-11T10:38:49.877Z,2.35
2022-10-11T10:41:19.752Z,2.30
2022-10-11T10:43:55.401Z,2.30
2022-10-11T10:46:47.158Z,2.88
2022-10-11T10:49:48.861Z,2.70
2022-10-11T10:53:03.260Z,2.47
2022-10-11T10:55:45.154Z,2.15
2022-10-11T10:58:21.524Z,2.25
2022-10-11T11:01:06.238Z,2.38
2022-10-11T11:03:42.567Z,2.47
2022-10-11T11:06:26.493Z,2.40
2022-10-11T11:09:14.732Z,2.13
2022-10-11T11:12:34.584Z,2.58
2022-10-11T11:15:35.553Z,2.40
2022-10-11T11:18:07.669Z,2.42
2022-10-11T11:20:56.201Z,2.40
2022-10-11T11:23:33.006Z,2.20
2022-10-11T11:26:37.122Z,2.28
2022-10-11T11:29:29.065Z,2.20
2022-10-11T11:32:11.006Z,2.08
2022-10-11T11:34:47.988Z,2.58
2022-10-11T11:37:25.681Z,2.08
2022-10-11T11:39:58.229Z,2.15
2022-10-11T11:42:42.370Z,2.15
2022-10-11T11:45:24.560Z,2.17
2022-10-11T11:48:10.518Z,2.60
2022-10-11T11:50:46.033Z,2.83
2022-10-11T11:53:25.327Z,2.13
2022-10-11T11:56:07.926Z,2.30
2022-10-11T11:58:46.649Z,2.13
2022-10-11T12:01:47.384Z,1.70
2022-10-11T12:04:35.352Z,2.20
2022-10-11T12:07:16.786Z,2.70
2022-10-11T12:09:52.136Z,2.88
2022-10-11T12:12:34.183Z,3.10
2022-10-11T12:15:10.174Z,3.67
2022-10-11T12:17:59.190Z,3.30
2022-10-11T12:20:41.814Z,3.13
2022-10-11T12:23:52.119Z,3.78
2022-10-11T12:26:36.265Z,2.85
2022-10-11T12:29:25.916Z,3.83
2022-10-11T12:32:01.493Z,3.08
2022-10-11T12:37:25.096Z,3.35
2022-10-11T12:39:59.765Z,3.00
2022-10-11T12:43:23.926Z,3.78
2022-10-11T12:45:53.437Z,2.70
2022-10-11T12:48:41.730Z,2.95
2022-10-11T12:51:17.573Z,3.00
2022-10-11T12:54:29.112Z,2.63
2022-10-11T12:57:11.892Z,2.63
2022-10-11T12:59:44.983Z,3.13
2022-10-11T13:02:42.699Z,3.10
2022-10-11T13:05:31.592Z,2.72
2022-10-11T13:08:05.627Z,2.63
2022-10-11T13:10:43.920Z,2.72
2022-10-11T13:13:53.607Z,2.55
2022-10-11T13:16:28.648Z,2.60
2022-10-11T13:19:03.897Z,2.53
2022-10-11T13:21:36.686Z,2.28
2022-10-11T13:24:17.521Z,2.47
2022-10-11T13:26:51.699Z,2.75
2022-10-11T13:29:19.823Z,3.17
2022-10-11T13:31:48.400Z,2.40
2022-10-11T13:34:18.621Z,2.47
2022-10-11T13:36:47.994Z,2.67
2022-10-11T13:39:31.772Z,2.20
2022-10-11T13:42:01.441Z,2.05
2022-10-11T13:44:28.510Z,2.72
2022-10-11T13:46:55.463Z,2.50
2022-10-11T13:49:47.637Z,2.35
2022-10-11T13:52:24.887Z,2.50
2022-10-11T13:55:23.630Z,2.55
2022-10-11T13:57:55.919Z,2.50
2022-10-11T14:00:35.514Z,3.17
2022-10-11T14:03:16.423Z,2.25
2022-10-11T14:05:56.107Z,2.45
2022-10-11T14:08:38.846Z,2.40
2022-10-11T14:11:09.747Z,1.90
2022-10-11T14:13:44.586Z,2.22
2022-10-11T14:16:13.777Z,1.83
2022-10-11T14:18:48.787Z,2.45
2022-10-11T14:21:45.911Z,2.10
2022-10-11T14:24:17.815Z,2.60
2022-10-11T14:26:48.824Z,2.20
2022-10-11T14:29:33.971Z,1.83
2022-10-11T14:32:30.705Z,2.28
2022-10-11T14:34:58.267Z,2.25
2022-10-11T14:37:25.573Z,2.50
2022-10-11T14:39:55.200Z,2.45
2022-10-11T14:42:25.033Z,2.65
2022-10-11T14:44:52.212Z,2.55
2022-10-11T14:47:19.139Z,2.75
2022-10-11T14:49:45.982Z,2.35
2022-10-11T14:52:14.358Z,2.53
2022-10-11T14:54:41.542Z,2.33
2022-10-11T14:57:11.929Z,2.33
2022-10-11T14:59:39.130Z,2.45
2022-10-11T15:02:08.844Z,2.35
2022-10-11T15:04:38.280Z,2.33
2022-10-11T15:07:05.414Z,2.53
2022-10-11T15:09:32.546Z,2.40
2022-10-11T15:12:04.210Z,2.85
2022-10-11T15:14:34.102Z,2.70
2022-10-11T15:17:03.126Z,2.92
2022-10-11T15:19:30.026Z,2.38
2022-10-11T15:21:56.948Z,2.42
2022-10-11T15:24:23.920Z,2.42
2022-10-11T15:26:50.831Z,2.78
2022-10-11T15:29:24.209Z,2.88
2022-10-11T15:31:53.186Z,2.50
2022-10-11T15:34:20.106Z,3.13
2022-10-11T15:36:47.073Z,2.38
2022-10-11T15:39:33.650Z,2.97
2022-10-11T15:42:00.588Z,2.53
2022-10-11T15:44:29.894Z,3.22
2022-10-11T15:46:56.745Z,2.70
2022-10-11T15:49:23.610Z,2.65
2022-10-11T15:51:50.520Z,2.83
2022-10-11T15:54:17.372Z,2.97
2022-10-11T15:56:44.291Z,2.97
2022-10-11T15:59:11.757Z,2.85
2022-10-11T16:01:41.725Z,2.78
2022-10-11T16:04:09.462Z,2.70
2022-10-11T16:06:38.651Z,2.85
2022-10-11T16:09:05.742Z,2.83
2022-10-11T16:11:35.106Z,2.50
2022-10-11T16:14:04.518Z,2.42
2022-10-11T16:16:31.371Z,2.58
2022-10-11T16:18:58.180Z,2.50
2022-10-11T16:21:27.467Z,2.97
2022-10-11T16:23:56.401Z,2.70
2022-10-11T16:26:25.338Z,2.63
2022-10-11T16:28:56.580Z,2.40
2022-10-11T16:31:23.830Z,2.72
2022-10-11T16:33:52.835Z,2.40
2022-10-11T16:36:31.946Z,2.75
2022-10-11T16:39:16.898Z,2.67
2022-10-11T16:41:44.416Z,2.50
2022-10-11T16:44:18.245Z,2.40
2022-10-11T16:46:49.077Z,2.78
2022-10-11T16:49:22.511Z,2.20
2022-10-11T16:51:51.930Z,2.30
2022-10-11T16:54:20.816Z,2.40
2022-10-11T16:56:49.838Z,2.85
2022-10-11T16:59:17.456Z,2.70
2022-10-11T17:01:47.155Z,2.78
2022-10-11T17:04:14.179Z,3.33
2022-10-11T17:06:43.809Z,3.25
2022-10-11T17:09:10.949Z,3.05
2022-10-11T17:11:40.645Z,3.10
2022-10-11T17:14:07.691Z,2.88
2022-10-11T17:16:37.768Z,3.35
2022-10-11T17:19:05.123Z,3.20
2022-10-11T17:21:32.054Z,3.20
2022-10-11T17:23:59.089Z,3.40
2022-10-11T17:26:29.526Z,3.08
2022-10-11T17:29:00.868Z,3.63
2022-10-11T17:31:29.646Z,3.28
2022-10-11T17:33:59.784Z,3.28
2022-10-11T17:36:34.721Z,4.47
2022-10-11T17:39:08.057Z,3.30
2022-10-11T17:41:38.425Z,3.53
2022-10-11T17:44:10.551Z,3.25
2022-10-11T17:46:41.567Z,3.75
2022-10-11T17:49:09.012Z,3.75
2022-10-11T17:51:58.216Z,3.60
2022-10-11T17:57:27.426Z,3.35
2022-10-11T18:00:11.473Z,3.33
2022-10-11T18:02:44.599Z,3.63
2022-10-11T18:05:17.824Z,3.30
2022-10-11T18:08:06.167Z,3.63
2022-10-11T18:10:47.697Z,3.35
2022-10-11T18:16:24.690Z,3.90
2022-10-11T18:19:00.110Z,4.20
2022-10-11T18:21:34.272Z,3.83
2022-10-11T18:31:48.886Z,3.10
2022-10-11T18:34:28.121Z,3.28
2022-10-11T18:37:20.340Z,3.67
2022-10-11T18:39:48.855Z,3.05
2022-10-11T18:42:25.944Z,3.58
2022-10-11T18:45:00.903Z,3.55
2022-10-11T18:47:31.917Z,3.80
2022-10-11T18:50:06.377Z,3.63
2022-10-11T18:52:44.358Z,3.55
2022-10-11T18:55:26.788Z,3.35
2022-10-11T18:58:04.292Z,3.80
2022-10-11T19:00:40.514Z,5.28
2022-10-11T19:03:11.549Z,5.43
2022-10-11T19:05:50.733Z,5.40
2022-10-11T19:08:27.813Z,5.45
2022-10-11T19:13:48.840Z,5.82
2022-10-11T19:16:49.460Z,5.38
2022-10-11T19:19:32.942Z,5.28
2022-10-11T19:22:10.666Z,4.15
2022-10-11T19:27:48.077Z,4.13
2022-10-11T19:30:17.344Z,4.45
2022-10-11T19:36:20.156Z,5.10
2022-10-11T19:38:49.692Z,4.75
2022-10-11T19:41:20.576Z,4.20
2022-10-11T19:43:58.197Z,4.85
2022-10-11T19:49:26.016Z,4.68
2022-10-11T19:54:55.782Z,3.83
2022-10-11T19:57:49.765Z,4.38
2022-10-11T20:00:17.137Z,4.03
2022-10-11T20:02:49.366Z,3.50
2022-10-11T20:05:16.383Z,4.78
2022-10-11T20:07:46.270Z,4.30
2022-10-11T20:10:13.112Z,4.60
2022-10-11T20:12:45.730Z,4.35
2022-10-11T20:15:12.874Z,4.57
2022-10-11T20:17:48.894Z,4.57
2022-10-11T20:20:17.717Z,4.43
2022-10-11T20:22:49.389Z,5.45
2022-10-11T20:25:16.395Z,5.63
2022-10-11T20:27:47.877Z,4.55
2022-10-11T20:32:44.019Z,4.13
2022-10-11T20:35:10.907Z,5.22
2022-10-11T20:37:42.334Z,6.43
2022-10-11T20:42:39.962Z,5.47
2022-10-11T20:45:07.679Z,5.95
2022-10-11T20:47:34.946Z,5.75
2022-10-11T20:50:02.098Z,6.22
2022-10-11T20:52:31.418Z,5.55
2022-10-11T20:55:01.425Z,6.05
2022-10-11T20:57:28.282Z,6.15
2022-10-11T20:59:56.355Z,5.30
2022-10-11T21:02:23.282Z,6.03
2022-10-11T21:04:55.094Z,5.00
2022-10-11T21:07:24.049Z,4.63
2022-10-11T21:09:51.205Z,5.70
2022-10-11T21:12:20.176Z,5.65
2022-10-11T21:14:49.602Z,5.60
2022-10-11T21:17:19.189Z,6.05
2022-10-11T21:19:50.752Z,5.90
2022-10-11T21:24:44.502Z,5.63
2022-10-11T21:27:13.867Z,5.32
2022-10-11T21:29:40.676Z,6.30
2022-10-11T21:32:14.134Z,6.05
2022-10-11T21:34:41.298Z,5.65
2022-10-11T21:37:10.546Z,5.45
2022-10-11T21:39:37.406Z,4.80
2022-10-11T21:42:04.278Z,5.35
2022-10-11T21:44:32.792Z,5.32
2022-10-11T21:47:07.202Z,5.28
2022-10-11T21:49:34.575Z,5.45
2022-10-11T21:52:01.570Z,5.82
2022-10-11T21:54:28.455Z,6.22
2022-10-11T21:57:00.032Z,5.32
2022-10-11T22:02:01.510Z,4.57
2022-10-11T22:04:30.943Z,5.53
2022-10-11T22:07:00.523Z,6.07
2022-10-11T22:09:29.657Z,5.50
2022-10-11T22:11:59.458Z,5.75
2022-10-11T22:14:26.770Z,5.30
2022-10-11T22:16:53.669Z,5.72
2022-10-11T22:19:20.620Z,5.25
2022-10-11T22:21:47.488Z,5.25
2022-10-11T22:24:18.846Z,5.63
2022-10-11T22:26:48.277Z,5.32
2022-10-11T22:29:17.424Z,5.55
2022-10-11T22:31:44.284Z,5.28
2022-10-11T22:34:11.256Z,4.72
2022-10-11T22:36:41.225Z,5.05
2022-10-11T22:39:09.769Z,5.15
2022-10-11T22:41:37.228Z,5.70
2022-10-11T22:44:07.189Z,4.97
2022-10-11T22:46:34.151Z,4.90
2022-10-11T22:49:00.996Z,4.78
2022-10-11T22:51:27.791Z,4.78
2022-10-11T22:53:54.696Z,6.32
2022-10-11T22:56:24.005Z,6.07
2022-10-11T22:58:50.861Z,5.75
2022-10-11T23:01:17.781Z,4.95
2022-10-11T23:03:53.925Z,6.75
2022-10-11T23:06:20.887Z,7.15
2022-10-11T23:08:47.803Z,6.85
2022-10-11T23:11:18.102Z,6.80
2022-10-11T23:13:44.945Z,5.68
2022-10-11T23:16:15.842Z,6.70
2022-10-11T23:18:42.993Z,6.43
2022-10-11T23:21:10.123Z,7.03
2022-10-11T23:23:37.097Z,6.38
2022-10-11T23:26:10.382Z,6.30
2022-10-11T23:28:37.877Z,6.25
2022-10-11T23:31:16.328Z,6.50
2022-10-11T23:33:45.048Z,5.82
2022-10-11T23:36:16.053Z,6.15
2022-10-11T23:38:43.435Z,5.38
2022-10-11T23:41:10.521Z,5.70
2022-10-11T23:43:37.941Z,5.32
2022-10-11T23:46:07.358Z,6.68
2022-10-11T23:48:34.214Z,5.53
2022-10-11T23:51:01.061Z,6.40
2022-10-11T23:53:28.018Z,7.25
2022-10-11T23:55:54.880Z,6.80
2022-10-11T23:58:24.414Z,7.43
